Time;durP1;ratioP1;P1;durP2;ratioP2;P2;SDS_P1;SDS_P2;PMS_P1;PMS_P2;Temp;Humidity;BMP_temperature;BMP_pressure;BME280_temperature;BME280_humidity;BME280_pressure;Samples;Min_cycle;Max_cycle;Signal;HPM_P1;HPM_P2
2021/07/22 00:00:18;;;;;;;6.32;3.90;;;20.20;90.30;;;;;;5033230;28;20033;-66
2021/07/22 00:02:45;;;;;;;8.90;3.50;;;20.20;90.40;;;;;;4999511;28;20029;-66
2021/07/22 00:05:11;;;;;;;5.90;3.80;;;20.10;90.50;;;;;;5032948;28;20048;-67
2021/07/22 00:07:37;;;;;;;5.13;4.00;;;20.10;90.70;;;;;;5033351;28;20163;-66
2021/07/22 00:10:03;;;;;;;7.15;3.60;;;20.10;90.70;;;;;;5033250;28;20486;-67
2021/07/22 00:12:29;;;;;;;5.72;3.28;;;20.10;90.70;;;;;;5032598;28;20467;-67
2021/07/22 00:14:54;;;;;;;5.15;3.80;;;20.00;91.00;;;;;;5033634;28;20025;-66
2021/07/22 00:17:20;;;;;;;5.15;3.65;;;20.00;91.10;;;;;;5032958;28;20375;-66
2021/07/22 00:19:46;;;;;;;5.43;4.18;;;20.10;91.10;;;;;;5015653;28;20383;-67
2021/07/22 00:22:11;;;;;;;7.18;3.50;;;20.00;91.30;;;;;;5014842;28;20033;-66
2021/07/22 00:24:37;;;;;;;10.52;4.13;;;20.00;91.30;;;;;;5033489;28;20071;-66
2021/07/22 00:27:03;;;;;;;4.55;3.42;;;20.00;91.20;;;;;;5033256;28;20037;-66
2021/07/22 00:29:30;;;;;;;9.18;3.75;;;19.90;91.50;;;;;;5032318;28;20390;-68
2021/07/22 00:31:57;;;;;;;3.83;3.10;;;20.00;91.40;;;;;;5033455;28;20034;-67
2021/07/22 00:34:23;;;;;;;5.30;4.25;;;19.90;91.40;;;;;;5014924;28;20371;-67
2021/07/22 00:36:49;;;;;;;6.65;3.78;;;19.90;91.60;;;;;;5033271;28;20462;-67
2021/07/22 00:39:16;;;;;;;6.65;3.92;;;19.90;91.80;;;;;;5031950;28;20056;-66
2021/07/22 00:41:42;;;;;;;5.32;3.83;;;19.80;91.80;;;;;;5033069;28;20033;-67
2021/07/22 00:44:08;;;;;;;8.02;4.07;;;19.80;92.00;;;;;;5032659;28;20037;-72
2021/07/22 00:46:33;;;;;;;7.45;3.35;;;19.70;92.10;;;;;;5015150;28;20490;-67
2021/07/22 00:48:59;;;;;;;4.53;3.65;;;19.80;92.20;;;;;;5014999;28;20033;-66
2021/07/22 00:51:25;;;;;;;7.68;3.58;;;19.80;92.20;;;;;;5032339;28;20128;-66
2021/07/22 00:53:50;;;;;;;6.13;4.00;;;19.80;92.30;;;;;;5032399;28;20109;-67
2021/07/22 00:56:16;;;;;;;7.63;4.03;;;19.80;92.30;;;;;;5031611;28;20053;-67
2021/07/22 00:58:41;;;;;;;7.32;4.03;;;19.70;92.60;;;;;;5033014;28;20422;-66
2021/07/22 01:01:07;;;;;;;9.93;3.65;;;19.70;92.50;;;;;;5032842;28;20464;-67
2021/07/22 01:03:36;;;;;;;5.45;3.58;;;19.70;92.50;;;;;;5031640;28;20030;-67
2021/07/22 01:06:01;;;;;;;5.35;3.78;;;19.70;92.60;;;;;;5032603;28;20068;-67
2021/07/22 01:08:27;;;;;;;5.88;3.97;;;19.60;92.70;;;;;;5031768;28;20340;-67
2021/07/22 01:10:52;;;;;;;8.35;3.92;;;19.60;92.90;;;;;;5032585;28;20029;-68
2021/07/22 01:13:18;;;;;;;7.32;4.28;;;19.60;92.90;;;;;;5032366;28;20095;-66
2021/07/22 01:15:44;;;;;;;7.32;3.80;;;19.60;93.00;;;;;;5032512;28;20021;-67
2021/07/22 01:18:10;;;;;;;5.18;3.72;;;19.60;93.10;;;;;;5032538;28;20033;-72
2021/07/22 01:20:35;;;;;;;4.03;3.40;;;19.50;93.10;;;;;;5014450;28;20083;-66
2021/07/22 01:23:01;;;;;;;6.07;4.15;;;19.60;93.20;;;;;;5032215;28;20124;-67
2021/07/22 01:25:29;;;;;;;7.30;3.95;;;19.60;93.20;;;;;;5031894;28;20037;-67
2021/07/22 01:27:56;;;;;;;6.10;4.25;;;19.50;93.20;;;;;;5032633;28;20021;-67
2021/07/22 01:30:21;;;;;;;5.88;3.72;;;19.60;93.20;;;;;;5031535;28;20034;-66
2021/07/22 01:32:47;;;;;;;6.65;4.13;;;19.50;93.20;;;;;;5014404;28;20029;-67
2021/07/22 01:35:13;;;;;;;7.38;4.03;;;19.40;93.20;;;;;;5013068;28;20025;-68
2021/07/22 01:37:43;;;;;;;6.00;4.20;;;19.50;93.20;;;;;;5031889;28;20038;-67
2021/07/22 01:40:11;;;;;;;6.03;4.07;;;19.50;93.20;;;;;;5014030;28;20027;-67
2021/07/22 01:42:37;;;;;;;5.47;3.80;;;19.50;93.40;;;;;;5031911;28;20055;-67
2021/07/22 01:45:07;;;;;;;8.70;3.80;;;19.50;93.40;;;;;;5032175;28;20095;-68
2021/07/22 01:47:34;;;;;;;5.28;3.80;;;19.40;93.50;;;;;;5031395;28;20353;-66
2021/07/22 01:50:00;;;;;;;7.10;4.35;;;19.40;93.40;;;;;;5031779;28;20026;-67
2021/07/22 01:52:25;;;;;;;6.55;4.25;;;19.40;93.60;;;;;;5030490;28;20036;-72
2021/07/22 01:54:51;;;;;;;9.38;3.88;;;19.40;93.70;;;;;;5042410;28;20125;-67
2021/07/22 01:57:17;;;;;;;7.18;3.97;;;19.40;93.70;;;;;;5031650;28;20029;-67
2021/07/22 01:59:42;;;;;;;5.63;3.97;;;19.20;93.90;;;;;;5013981;28;20167;-67
2021/07/22 02:02:09;;;;;;;7.03;3.90;;;19.20;93.90;;;;;;5031247;28;20061;-67
2021/07/22 02:04:36;;;;;;;15.13;4.95;;;19.20;94.10;;;;;;5012940;28;20411;-67
2021/07/22 02:07:02;;;;;;;5.32;4.38;;;19.10;94.20;;;;;;5031344;28;20033;-67
2021/07/22 02:09:28;;;;;;;5.60;4.15;;;19.10;94.30;;;;;;5030930;28;20030;-67
2021/07/22 02:11:56;;;;;;;9.60;4.53;;;19.20;94.30;;;;;;5031105;28;20048;-67
2021/07/22 02:14:22;;;;;;;6.30;4.07;;;19.10;94.30;;;;;;5030481;28;20041;-66
2021/07/22 02:16:48;;;;;;;7.43;4.00;;;19.10;94.50;;;;;;5013724;28;20099;-67
2021/07/22 02:19:14;;;;;;;5.57;4.00;;;19.10;94.60;;;;;;5013070;28;20033;-73
2021/07/22 02:21:41;;;;;;;5.65;4.63;;;19.10;94.60;;;;;;5030955;28;20040;-68
2021/07/22 02:24:08;;;;;;;8.98;4.30;;;19.10;94.70;;;;;;5013157;28;20036;-67
2021/07/22 02:26:34;;;;;;;6.40;4.32;;;19.10;94.80;;;;;;5030609;28;20280;-67
2021/07/22 02:29:00;;;;;;;5.78;4.50;;;19.00;94.90;;;;;;5013459;28;20026;-67
2021/07/22 02:31:27;;;;;;;9.05;4.55;;;19.00;94.80;;;;;;5030229;28;20053;-67
2021/07/22 02:33:53;;;;;;;5.93;4.03;;;19.10;94.70;;;;;;5012671;28;20025;-68
2021/07/22 02:36:19;;;;;;;8.93;4.55;;;19.10;94.70;;;;;;5012259;28;20087;-67
2021/07/22 02:38:45;;;;;;;5.18;4.15;;;19.10;94.80;;;;;;5030492;28;20471;-67
2021/07/22 02:41:10;;;;;;;7.70;3.95;;;19.00;94.90;;;;;;5030829;28;20095;-66
2021/07/22 02:43:36;;;;;;;6.40;3.80;;;19.00;94.90;;;;;;5012393;28;20484;-66
2021/07/22 02:46:09;;;;;;;5.50;4.28;;;19.00;94.90;;;;;;5030548;28;20021;-66
2021/07/22 02:48:34;;;;;;;6.32;3.80;;;19.10;94.90;;;;;;5012446;28;20108;-66
2021/07/22 02:51:01;;;;;;;7.32;4.68;;;19.10;94.90;;;;;;5030884;28;20431;-66
2021/07/22 02:53:28;;;;;;;5.07;3.90;;;19.10;94.80;;;;;;5012299;28;20089;-66
2021/07/22 02:56:00;;;;;;;9.15;4.25;;;19.00;95.00;;;;;;5030467;28;20428;-67
2021/07/22 02:58:29;;;;;;;6.38;3.80;;;18.90;95.20;;;;;;5012290;28;20116;-68
2021/07/22 03:00:55;;;;;;;4.93;4.13;;;18.90;95.30;;;;;;5013195;28;20037;-67
2021/07/22 03:03:22;;;;;;;9.95;4.72;;;18.90;95.40;;;;;;5029930;28;20029;-67
2021/07/22 03:05:48;;;;;;;7.80;4.43;;;18.80;95.40;;;;;;5030635;28;20442;-66
2021/07/22 03:08:14;;;;;;;5.63;3.97;;;18.90;95.40;;;;;;5030893;28;20021;-66
2021/07/22 03:10:40;;;;;;;5.05;3.97;;;18.80;95.60;;;;;;5029914;28;20085;-66
2021/07/22 03:13:06;;;;;;;19.35;5.20;;;18.80;95.60;;;;;;5030294;28;20475;-67
2021/07/22 03:15:32;;;;;;;5.82;4.18;;;18.80;95.70;;;;;;5029970;28;20057;-66
2021/07/22 03:17:57;;;;;;;7.78;3.92;;;18.80;95.80;;;;;;5030573;28;20128;-67
2021/07/22 03:20:23;;;;;;;9.50;4.35;;;18.80;95.80;;;;;;5011893;28;20044;-67
2021/07/22 03:22:49;;;;;;;10.85;4.55;;;18.80;95.70;;;;;;5030161;28;20030;-66
2021/07/22 03:25:15;;;;;;;9.10;4.65;;;18.80;95.90;;;;;;5012218;28;20030;-66
2021/07/22 03:27:40;;;;;;;9.38;5.25;;;18.70;96.00;;;;;;5029511;28;20056;-66
2021/07/22 03:30:07;;;;;;;5.30;4.40;;;18.60;96.20;;;;;;5030406;28;20030;-66
2021/07/22 03:32:34;;;;;;;7.72;4.15;;;18.50;96.30;;;;;;5029771;28;20029;-66
2021/07/22 03:35:00;;;;;;;8.60;4.38;;;18.60;96.40;;;;;;5030020;28;20422;-66
2021/07/22 03:37:25;;;;;;;6.72;4.80;;;18.60;96.50;;;;;;5012096;28;20031;-66
2021/07/22 03:39:51;;;;;;;6.95;4.25;;;18.50;96.50;;;;;;5030189;28;20029;-66
2021/07/22 03:42:16;;;;;;;6.25;4.28;;;18.60;96.70;;;;;;5030396;28;20029;-67
2021/07/22 03:44:42;;;;;;;10.13;4.63;;;18.60;96.60;;;;;;5011683;28;20076;-67
2021/07/22 03:47:07;;;;;;;7.18;4.90;;;18.60;96.50;;;;;;5030275;28;20037;-66
2021/07/22 03:49:34;;;;;;;6.65;4.70;;;18.60;96.70;;;;;;5011590;28;20120;-67
2021/07/22 03:52:00;;;;;;;6.57;4.55;;;18.60;96.70;;;;;;5012279;28;20051;-67
2021/07/22 03:54:25;;;;;;;7.07;4.30;;;18.50;96.80;;;;;;5016767;28;20128;-68
2021/07/22 03:56:51;;;;;;;8.10;3.95;;;18.50;96.90;;;;;;5050067;28;20422;-67
2021/07/22 03:59:17;;;;;;;7.15;4.28;;;18.60;96.70;;;;;;5053481;28;20029;-67
2021/07/22 04:01:43;;;;;;;10.82;5.35;;;18.60;96.80;;;;;;5052992;28;20108;-67
2021/07/22 04:04:10;;;;;;;7.32;4.72;;;18.60;96.90;;;;;;5053357;28;20100;-67
2021/07/22 04:06:36;;;;;;;6.97;4.28;;;18.50;97.00;;;;;;5052764;28;20078;-67
2021/07/22 04:09:06;;;;;;;6.82;4.57;;;18.40;97.00;;;;;;5053112;28;20041;-67
2021/07/22 04:11:33;;;;;;;6.63;4.50;;;18.40;97.20;;;;;;5052516;28;20049;-67
2021/07/22 04:13:58;;;;;;;6.95;4.78;;;18.40;97.30;;;;;;5053165;28;20068;-67
2021/07/22 04:16:24;;;;;;;8.30;4.78;;;18.50;97.30;;;;;;5052725;28;20120;-68
2021/07/22 04:18:49;;;;;;;9.35;4.68;;;18.50;97.10;;;;;;5053174;28;20033;-68
2021/07/22 04:21:15;;;;;;;7.07;4.88;;;18.60;97.00;;;;;;5051813;28;20128;-66
2021/07/22 04:23:42;;;;;;;8.13;4.75;;;18.70;96.90;;;;;;5052412;28;20536;-67
2021/07/22 04:26:16;;;;;;;7.57;4.63;;;18.70;97.00;;;;;;5053177;28;20064;-67
2021/07/22 04:28:43;;;;;;;5.18;4.45;;;18.70;97.00;;;;;;5051242;28;20079;-67
2021/07/22 04:31:13;;;;;;;6.22;4.20;;;18.70;97.30;;;;;;5053173;28;20060;-68
2021/07/22 04:33:39;;;;;;;10.13;4.90;;;18.70;97.50;;;;;;5052201;28;20124;-67
2021/07/22 04:36:04;;;;;;;6.35;4.10;;;18.80;97.40;;;;;;5053153;28;20442;-68
2021/07/22 04:38:34;;;;;;;11.65;4.93;;;18.80;97.40;;;;;;5052188;28;20035;-67
2021/07/22 04:40:59;;;;;;;6.95;4.63;;;18.70;97.40;;;;;;5052981;28;20135;-66
2021/07/22 04:43:25;;;;;;;9.00;5.38;;;18.80;97.30;;;;;;5051211;28;20064;-68
2021/07/22 04:45:51;;;;;;;7.53;3.95;;;18.80;97.30;;;;;;5052678;28;20467;-67
2021/07/22 04:48:16;;;;;;;9.40;4.53;;;18.90;97.10;;;;;;5052898;28;20057;-67
2021/07/22 04:50:42;;;;;;;5.43;4.25;;;18.90;97.30;;;;;;5051954;28;20245;-67
2021/07/22 04:53:07;;;;;;;6.35;4.40;;;18.90;97.20;;;;;;5052263;28;20548;-67
2021/07/22 04:55:33;;;;;;;5.45;4.38;;;19.00;97.20;;;;;;5038000;28;20053;-67
2021/07/22 04:58:00;;;;;;;6.72;4.50;;;19.00;97.10;;;;;;5014299;28;20163;-66
2021/07/22 05:00:25;;;;;;;6.38;5.40;;;19.10;97.10;;;;;;5014192;28;20103;-68
2021/07/22 05:03:00;;;;;;;7.90;4.82;;;19.00;97.00;;;;;;5032387;28;20510;-68
2021/07/22 05:05:27;;;;;;;9.43;5.03;;;19.10;97.20;;;;;;5032059;28;20128;-68
2021/07/22 05:07:53;;;;;;;6.85;4.47;;;19.10;97.10;;;;;;5015225;28;20064;-67
2021/07/22 05:10:18;;;;;;;8.93;4.38;;;19.30;97.00;;;;;;5013562;28;20052;-67
2021/07/22 05:12:44;;;;;;;13.27;4.65;;;19.30;97.00;;;;;;5031748;28;20143;-67
2021/07/22 05:15:10;;;;;;;6.60;4.53;;;19.40;96.90;;;;;;5013919;28;20366;-67
2021/07/22 05:17:37;;;;;;;13.45;5.20;;;19.50;97.00;;;;;;5013719;28;20032;-68
2021/07/22 05:20:03;;;;;;;6.80;4.55;;;19.30;96.90;;;;;;5032216;28;20129;-68
2021/07/22 05:22:29;;;;;;;7.20;4.25;;;19.40;97.00;;;;;;5031382;28;20041;-68
2021/07/22 05:24:54;;;;;;;9.63;4.50;;;19.50;96.80;;;;;;5014049;28;20120;-67
2021/07/22 05:27:20;;;;;;;6.47;4.38;;;19.60;96.60;;;;;;5014325;28;20036;-66
2021/07/22 05:29:46;;;;;;;9.25;4.13;;;19.60;96.50;;;;;;5030731;28;20044;-68
2021/07/22 05:32:15;;;;;;;7.20;4.65;;;19.80;96.20;;;;;;5031921;28;20072;-69
2021/07/22 05:34:40;;;;;;;8.70;5.38;;;19.80;96.30;;;;;;5031553;28;20095;-67
2021/07/22 05:37:07;;;;;;;6.65;4.55;;;19.80;96.20;;;;;;5014122;28;20021;-68
2021/07/22 05:39:36;;;;;;;10.43;5.50;;;19.80;96.20;;;;;;5013195;28;20096;-68
2021/07/22 05:42:03;;;;;;;6.32;4.47;;;19.90;96.00;;;;;;5014129;28;20108;-68
2021/07/22 05:44:29;;;;;;;7.43;4.82;;;19.90;95.90;;;;;;5013559;28;20182;-69
2021/07/22 05:46:55;;;;;;;5.57;4.15;;;19.90;95.80;;;;;;5014081;28;20025;-68
2021/07/22 05:49:20;;;;;;;10.18;5.15;;;19.90;95.70;;;;;;5031906;28;20185;-68
2021/07/22 05:51:46;;;;;;;8.38;5.07;;;20.00;95.70;;;;;;5031065;28;20526;-67
2021/07/22 05:54:12;;;;;;;8.02;4.60;;;19.90;95.60;;;;;;5031070;28;20041;-67
2021/07/22 05:56:37;;;;;;;8.70;4.35;;;19.70;95.90;;;;;;5013072;28;20029;-67
2021/07/22 05:59:03;;;;;;;8.70;4.80;;;19.90;95.90;;;;;;5030913;28;20025;-70
2021/07/22 06:01:29;;;;;;;5.50;4.65;;;19.80;95.70;;;;;;5030639;28;20103;-67
2021/07/22 06:03:55;;;;;;;8.55;4.88;;;19.80;95.60;;;;;;5030910;28;20029;-68
2021/07/22 06:06:20;;;;;;;7.65;4.70;;;19.90;95.60;;;;;;5031511;28;20032;-67
2021/07/22 06:08:46;;;;;;;11.20;5.10;;;20.00;95.60;;;;;;5030700;28;20443;-67
2021/07/22 06:11:12;;;;;;;5.65;4.18;;;20.10;95.50;;;;;;5031041;28;20106;-68
2021/07/22 06:13:38;;;;;;;6.28;4.60;;;20.10;95.30;;;;;;5012446;28;20096;-68
2021/07/22 06:16:08;;;;;;;7.28;5.03;;;20.10;95.50;;;;;;5030574;28;20060;-68
2021/07/22 06:18:34;;;;;;;10.43;5.05;;;20.20;95.40;;;;;;5030218;28;20167;-67
2021/07/22 06:20:59;;;;;;;7.07;4.57;;;20.20;95.40;;;;;;5030154;28;20469;-67
2021/07/22 06:23:25;;;;;;;7.75;4.80;;;20.30;95.30;;;;;;5012740;28;20032;-68
2021/07/22 06:26:00;;;;;;;8.75;5.22;;;20.30;95.20;;;;;;5030077;28;20378;-67
2021/07/22 06:28:27;;;;;;;9.15;5.85;;;20.40;95.20;;;;;;5012763;28;20455;-67
2021/07/22 06:30:53;;;;;;;8.43;4.13;;;20.30;95.10;;;;;;5030439;28;20502;-67
2021/07/22 06:33:19;;;;;;;8.60;4.50;;;20.50;95.20;;;;;;5030752;28;20102;-68
2021/07/22 06:35:45;;;;;;;13.93;5.68;;;20.60;95.10;;;;;;5011989;28;20112;-68
2021/07/22 06:38:11;;;;;;;6.97;5.00;;;20.70;95.00;;;;;;5012937;28;20057;-67
2021/07/22 06:40:37;;;;;;;7.70;4.90;;;20.60;94.80;;;;;;5011928;28;20036;-69
2021/07/22 06:43:03;;;;;;;9.05;4.80;;;20.60;94.60;;;;;;5030074;28;20029;-68
2021/07/22 06:45:29;;;;;;;11.10;4.85;;;20.80;94.80;;;;;;5030474;28;20057;-67
2021/07/22 06:47:55;;;;;;;9.63;4.95;;;20.90;94.40;;;;;;5031190;28;20040;-67
2021/07/22 06:50:20;;;;;;;9.13;4.85;;;21.00;94.30;;;;;;5030668;28;20037;-67
2021/07/22 06:52:46;;;;;;;6.70;4.60;;;21.10;93.70;;;;;;5011723;28;20061;-67
2021/07/22 06:55:12;;;;;;;6.72;5.18;;;21.20;93.70;;;;;;5030048;28;20049;-67
2021/07/22 06:57:37;;;;;;;10.55;5.10;;;21.20;93.50;;;;;;5012024;28;20421;-69
2021/07/22 07:00:04;;;;;;;7.50;4.43;;;21.10;93.70;;;;;;5030511;28;20022;-67
2021/07/22 07:02:31;;;;;;;8.27;4.68;;;21.30;93.40;;;;;;5012462;28;20025;-73
2021/07/22 07:04:56;;;;;;;7.20;4.32;;;21.40;93.10;;;;;;5030242;28;20094;-66
2021/07/22 07:07:22;;;;;;;5.07;4.57;;;21.30;92.90;;;;;;5030279;28;20025;-66
2021/07/22 07:09:48;;;;;;;6.30;4.88;;;21.40;93.10;;;;;;5029931;28;20037;-68
2021/07/22 07:12:13;;;;;;;7.65;4.65;;;21.30;93.00;;;;;;5030454;28;20025;-67
2021/07/22 07:14:39;;;;;;;5.20;4.53;;;21.40;92.60;;;;;;5011827;28;20029;-67
2021/07/22 07:17:05;;;;;;;6.82;4.30;;;21.60;92.50;;;;;;5030326;28;20029;-68
2021/07/22 07:19:32;;;;;;;6.60;4.45;;;21.80;92.20;;;;;;5029962;28;20036;-74
2021/07/22 07:21:58;;;;;;;7.22;4.90;;;21.60;92.20;;;;;;5029895;28;20539;-68
2021/07/22 07:24:24;;;;;;;6.82;4.65;;;21.70;92.10;;;;;;5012458;28;20091;-68
2021/07/22 07:26:49;;;;;;;7.28;5.22;;;21.90;92.10;;;;;;5011231;28;20395;-68
2021/07/22 07:29:15;;;;;;;8.85;5.20;;;21.80;91.80;;;;;;5029696;28;20084;-68
2021/07/22 07:31:41;;;;;;;7.07;4.45;;;21.90;92.30;;;;;;5011369;28;20463;-68
2021/07/22 07:34:07;;;;;;;8.80;4.25;;;22.10;92.00;;;;;;5033968;28;20022;-67
2021/07/22 07:36:33;;;;;;;9.50;4.80;;;22.20;91.80;;;;;;5015584;28;20036;-71
2021/07/22 07:38:59;;;;;;;6.00;4.35;;;22.40;91.50;;;;;;5033522;28;20030;-68
2021/07/22 07:41:24;;;;;;;6.75;4.93;;;22.50;91.40;;;;;;5033923;28;20453;-68
2021/07/22 07:43:50;;;;;;;5.60;5.05;;;22.70;91.10;;;;;;5014562;28;20025;-67
2021/07/22 07:46:16;;;;;;;8.75;5.03;;;22.60;90.60;;;;;;5032813;28;20070;-68
2021/07/22 07:48:41;;;;;;;8.23;5.05;;;22.70;90.70;;;;;;5032073;28;20087;-68
2021/07/22 07:51:09;;;;;;;6.75;5.13;;;22.90;90.90;;;;;;5032733;28;20104;-55
2021/07/22 07:53:35;;;;;;;6.72;3.60;;;22.80;90.10;;;;;;5015062;28;20382;-61
2021/07/22 07:56:02;;;;;;;7.18;4.70;;;22.80;91.20;;;;;;5032641;28;20494;-55
2021/07/22 07:58:27;;;;;;;7.38;4.03;;;22.90;91.10;;;;;;5033023;28;20040;-55
2021/07/22 08:00:53;;;;;;;10.60;5.45;;;23.30;90.90;;;;;;5032982;28;20037;-55
2021/07/22 08:03:20;;;;;;;6.13;4.65;;;23.40;90.50;;;;;;5034793;28;20029;-56
2021/07/22 08:05:47;;;;;;;5.32;4.57;;;23.50;90.40;;;;;;5017132;28;20116;-54
2021/07/22 08:08:13;;;;;;;8.07;5.32;;;23.70;90.10;;;;;;5018149;28;20112;-55
2021/07/22 08:10:41;;;;;;;7.43;4.78;;;23.90;90.30;;;;;;5036730;28;20108;-58
2021/07/22 08:13:08;;;;;;;6.22;5.55;;;24.20;89.70;;;;;;5033861;28;20053;-56
2021/07/22 08:15:34;;;;;;;6.00;4.28;;;24.40;89.30;;;;;;5015726;28;20030;-55
2021/07/22 08:18:00;;;;;;;6.65;4.57;;;24.50;88.30;;;;;;5032553;28;20037;-55
2021/07/22 08:20:25;;;;;;;6.72;5.22;;;24.80;87.20;;;;;;5016283;28;20044;-55
2021/07/22 08:22:51;;;;;;;7.07;4.85;;;24.90;86.60;;;;;;5033735;28;20029;-54
2021/07/22 08:25:17;;;;;;;11.55;5.30;;;25.00;87.60;;;;;;5051730;28;20037;-56
2021/07/22 08:27:42;;;;;;;10.07;4.85;;;25.20;87.10;;;;;;5033795;28;20075;-54
2021/07/22 08:30:08;;;;;;;5.90;4.32;;;25.50;86.40;;;;;;5034294;28;20132;-54
2021/07/22 08:32:34;;;;;;;5.35;4.43;;;25.30;86.50;;;;;;5052789;28;20079;-55
2021/07/22 08:35:00;;;;;;;11.13;5.47;;;25.60;85.80;;;;;;5032923;28;20025;-55
2021/07/22 08:37:25;;;;;;;6.25;4.65;;;25.60;85.00;;;;;;5051491;28;20060;-56
2021/07/22 08:39:55;;;;;;;7.70;4.50;;;25.80;85.30;;;;;;5050889;28;20068;-55
2021/07/22 08:42:25;;;;;;;7.50;4.45;;;25.50;82.70;;;;;;5052329;28;20080;-54
2021/07/22 08:44:50;;;;;;;5.88;5.00;;;25.50;82.70;;;;;;5032918;28;20025;-55
2021/07/22 08:47:17;;;;;;;7.35;4.65;;;25.60;83.10;;;;;;5049033;28;20573;-55
2021/07/22 08:49:43;;;;;;;20.48;4.95;;;26.00;83.90;;;;;;5040353;28;20067;-55
2021/07/22 08:52:10;;;;;;;4.55;3.90;;;26.40;82.40;;;;;;5041372;28;20067;-55
2021/07/22 08:54:37;;;;;;;4.78;3.60;;;26.50;82.00;;;;;;5031501;28;20072;-59
2021/07/22 08:57:06;;;;;;;6.35;5.03;;;26.60;81.70;;;;;;5019439;28;20134;-56
2021/07/22 08:59:32;;;;;;;6.00;3.80;;;26.50;81.40;;;;;;5014884;28;20486;-56
2021/07/22 09:01:59;;;;;;;5.00;4.20;;;26.70;81.20;;;;;;5012864;28;20230;-54
2021/07/22 09:04:25;;;;;;;6.43;4.18;;;27.10;82.50;;;;;;5039815;28;20029;-55
2021/07/22 09:06:50;;;;;;;12.60;4.65;;;27.30;82.00;;;;;;5018694;28;20392;-54
2021/07/22 09:09:17;;;;;;;7.28;3.90;;;27.30;78.90;;;;;;5021519;28;20124;-54
2021/07/22 09:12:01;;;;;;;4.85;4.15;;;27.50;76.90;;;;;;5039151;28;20430;-57
2021/07/22 09:14:29;;;;;;;6.68;4.47;;;27.40;77.10;;;;;;5012925;28;20022;-55
2021/07/22 09:16:56;;;;;;;10.77;4.75;;;27.70;77.10;;;;;;5029603;28;20475;-55
2021/07/22 09:19:33;;;;;;;4.40;4.00;;;27.90;75.90;;;;;;5030214;28;20033;-59
2021/07/22 09:22:00;;;;;;;5.40;4.05;;;27.90;74.90;;;;;;5042123;28;20680;-54
2021/07/22 09:24:25;;;;;;;4.78;4.28;;;27.90;75.50;;;;;;5049820;28;20036;-54
2021/07/22 09:26:51;;;;;;;5.95;4.63;;;28.10;75.10;;;;;;5043763;28;20029;-56
2021/07/22 09:29:18;;;;;;;5.35;4.85;;;27.80;72.40;;;;;;5029280;28;20040;-54
2021/07/22 09:31:46;;;;;;;5.63;4.57;;;28.10;71.50;;;;;;5049678;28;20110;-54
2021/07/22 09:34:24;;;;;;;6.18;5.03;;;28.30;71.30;;;;;;5026374;28;20439;-57
2021/07/22 09:36:49;;;;;;;4.57;3.95;;;28.40;69.90;;;;;;5021881;28;20111;-55
2021/07/22 09:39:22;;;;;;;14.18;5.32;;;28.60;71.60;;;;;;5033194;28;20056;-55
2021/07/22 09:42:00;;;;;;;6.38;4.38;;;28.70;69.20;;;;;;5027318;28;20052;-55
2021/07/22 09:44:37;;;;;;;6.82;5.30;;;28.80;69.70;;;;;;5031015;28;20461;-54
2021/07/22 09:47:05;;;;;;;7.30;4.43;;;29.00;69.30;;;;;;5030682;28;20112;-55
2021/07/22 09:49:38;;;;;;;7.80;5.43;;;29.10;66.80;;;;;;5029794;28;20044;-54
2021/07/22 09:52:10;;;;;;;9.18;5.50;;;29.20;65.80;;;;;;5024777;28;20032;-55
2021/07/22 09:54:38;;;;;;;5.97;5.00;;;29.20;66.10;;;;;;5040052;28;20133;-55
2021/07/22 09:57:14;;;;;;;7.65;5.05;;;29.20;66.70;;;;;;5070371;28;20032;-54
2021/07/22 09:59:42;;;;;;;6.47;4.60;;;29.50;66.10;;;;;;5070243;28;20039;-61
2021/07/22 10:02:16;;;;;;;5.18;4.68;;;29.50;66.80;;;;;;5070943;28;20032;-56
2021/07/22 10:04:44;;;;;;;8.52;7.30;;;29.60;66.50;;;;;;5068211;28;20031;-55
2021/07/22 10:07:15;;;;;;;6.18;5.28;;;29.60;65.40;;;;;;5068854;28;20020;-54
2021/07/22 10:09:41;;;;;;;5.32;4.53;;;29.70;66.60;;;;;;5061593;28;20033;-55
2021/07/22 10:12:07;;;;;;;8.18;5.22;;;29.70;65.70;;;;;;5049453;28;20459;-54
2021/07/22 10:14:34;;;;;;;7.10;5.03;;;29.60;65.80;;;;;;5057981;28;20032;-54
2021/07/22 10:17:02;;;;;;;7.65;5.00;;;29.70;66.90;;;;;;5056142;28;20572;-55
2021/07/22 10:19:31;;;;;;;6.88;4.82;;;29.90;66.00;;;;;;5057957;28;20036;-54
2021/07/22 10:21:59;;;;;;;6.38;5.15;;;30.20;66.00;;;;;;5053347;28;20067;-55
2021/07/22 10:24:25;;;;;;;5.95;5.00;;;30.30;65.50;;;;;;5055723;28;20096;-55
2021/07/22 10:26:52;;;;;;;7.70;5.25;;;30.40;62.90;;;;;;5052735;28;20106;-59
2021/07/22 10:29:17;;;;;;;8.70;5.18;;;29.80;64.10;;;;;;5052496;28;20031;-55
2021/07/22 10:31:46;;;;;;;5.60;4.40;;;29.80;63.00;;;;;;5055197;28;20033;-56
2021/07/22 10:34:15;;;;;;;7.10;4.95;;;30.30;64.90;;;;;;5069079;28;20039;-57
2021/07/22 10:36:43;;;;;;;8.18;5.03;;;30.10;61.90;;;;;;5069670;28;20028;-54
2021/07/22 10:39:09;;;;;;;8.25;4.85;;;29.70;64.00;;;;;;5070030;28;20035;-56
2021/07/22 10:41:39;;;;;;;6.63;5.55;;;30.00;62.80;;;;;;5070457;28;20040;-54
2021/07/22 10:44:31;;;;;;;8.45;4.60;;;30.00;63.40;;;;;;5068603;28;20385;-54
2021/07/22 10:47:02;;;;;;;6.28;5.15;;;30.10;63.20;;;;;;5057582;28;20064;-54
2021/07/22 10:49:42;;;;;;;6.47;5.88;;;30.30;63.40;;;;;;5070161;28;20077;-55
2021/07/22 10:52:12;;;;;;;19.95;5.35;;;30.40;62.60;;;;;;5069349;28;20032;-54
2021/07/22 10:54:40;;;;;;;6.30;5.00;;;30.70;61.90;;;;;;5051984;28;20104;-54
2021/07/22 10:57:06;;;;;;;75.05;67.22;;;30.70;62.20;;;;;;5069475;28;20032;-68
2021/07/22 11:00:08;;;;;;;80.78;66.70;;;30.40;61.60;;;;;;5068811;28;20037;-69
2021/07/22 11:02:45;;;;;;;6.50;5.60;;;30.90;60.90;;;;;;4985272;28;20050;-68
2021/07/22 11:05:31;;;;;;;6.82;4.53;;;30.50;61.20;;;;;;5056908;28;20093;-69
2021/07/22 11:08:17;;;;;;;9.82;5.40;;;31.10;62.20;;;;;;5063376;28;20528;-69
2021/07/22 11:10:57;;;;;;;8.02;5.03;;;31.50;59.70;;;;;;5073137;28;20093;-70
2021/07/22 11:13:50;;;;;;;10.00;5.45;;;31.20;59.60;;;;;;5075291;28;20052;-69
2021/07/22 11:16:28;;;;;;;6.95;4.50;;;31.40;59.60;;;;;;5074108;28;20025;-68
2021/07/22 11:19:02;;;;;;;7.38;5.20;;;31.10;59.50;;;;;;5071695;28;20078;-69
2021/07/22 11:21:33;;;;;;;11.57;5.38;;;31.20;59.00;;;;;;5073961;28;20025;-68
2021/07/22 11:24:00;;;;;;;6.25;5.13;;;31.40;59.20;;;;;;5071426;28;20033;-69
2021/07/22 11:26:31;;;;;;;6.55;5.75;;;31.70;60.20;;;;;;5072533;28;20028;-68
2021/07/22 11:29:00;;;;;;;8.18;5.38;;;32.10;59.70;;;;;;5071422;28;20075;-67
2021/07/22 11:31:30;;;;;;;8.70;5.07;;;32.30;58.10;;;;;;5065248;28;20451;-67
2021/07/22 11:34:01;;;;;;;7.35;5.70;;;32.40;59.20;;;;;;5058365;28;20103;-57
2021/07/22 11:36:27;;;;;;;5.70;5.07;;;32.20;58.20;;;;;;5072922;28;20033;-55
2021/07/22 11:38:54;;;;;;;8.20;5.63;;;31.70;59.00;;;;;;5061779;28;20028;-74
2021/07/22 11:41:21;;;;;;;9.85;5.68;;;31.30;60.60;;;;;;5058428;28;20097;-72
2021/07/22 11:44:01;;;;;;;6.50;5.38;;;31.50;59.70;;;;;;5059462;28;20072;-56
2021/07/22 11:46:43;;;;;;;7.00;5.55;;;31.20;59.20;;;;;;5059706;28;20052;-73
2021/07/22 11:49:14;;;;;;;5.72;5.00;;;31.20;58.90;;;;;;5060834;28;20106;-74
2021/07/22 11:51:50;;;;;;;5.85;5.25;;;31.70;60.00;;;;;;5068111;28;20028;-78
2021/07/22 11:54:19;;;;;;;6.25;5.47;;;31.90;59.30;;;;;;5073049;28;20133;-77
2021/07/22 11:56:48;;;;;;;5.68;4.90;;;32.10;58.70;;;;;;5036039;28;20028;-77
2021/07/22 11:59:14;;;;;;;10.57;5.75;;;32.20;58.60;;;;;;5054493;28;20029;-77
2021/07/22 12:01:47;;;;;;;6.10;4.90;;;32.30;58.40;;;;;;5053853;28;20386;-79
2021/07/22 12:04:21;;;;;;;9.02;5.82;;;32.40;57.70;;;;;;5036093;28;20450;-77
2021/07/22 12:06:49;;;;;;;6.82;5.55;;;32.30;57.60;;;;;;5034819;28;20483;-77
2021/07/22 12:09:15;;;;;;;6.75;5.70;;;31.90;56.70;;;;;;5035319;28;20482;-77
2021/07/22 12:11:53;;;;;;;6.97;5.80;;;31.10;58.50;;;;;;5053384;28;20040;-76
2021/07/22 12:14:30;;;;;;;9.90;6.63;;;31.20;57.30;;;;;;5053382;28;20390;-76
2021/07/22 12:17:00;;;;;;;6.75;5.95;;;31.00;57.50;;;;;;5034493;28;20540;-77
2021/07/22 12:19:28;;;;;;;9.25;5.03;;;31.10;59.40;;;;;;5034581;28;20079;-76
2021/07/22 12:22:16;;;;;;;8.98;6.03;;;31.60;59.30;;;;;;5052610;28;20029;-76
2021/07/22 12:24:41;;;;;;;8.43;6.93;;;31.70;58.00;;;;;;5034901;28;20033;-76
2021/07/22 12:27:28;;;;;;;8.50;5.40;;;32.00;58.90;;;;;;5052283;28;20154;-76
2021/07/22 12:29:53;;;;;;;6.45;5.32;;;32.10;59.00;;;;;;5034531;28;20123;-76
2021/07/22 12:32:19;;;;;;;6.72;5.57;;;32.20;58.80;;;;;;5053808;28;20210;-75
2021/07/22 12:34:45;;;;;;;10.30;5.78;;;32.70;57.90;;;;;;5034579;28;20021;-75
2021/07/22 12:37:10;;;;;;;7.35;5.55;;;32.70;57.60;;;;;;5052442;28;20040;-76
2021/07/22 12:39:36;;;;;;;6.85;4.75;;;33.00;57.30;;;;;;5052964;28;20463;-76
2021/07/22 12:42:13;;;;;;;10.63;5.88;;;33.10;56.70;;;;;;5034215;28;20458;-76
2021/07/22 12:44:44;;;;;;;9.43;5.63;;;33.00;58.00;;;;;;5035689;28;20169;-77
2021/07/22 12:47:31;;;;;;;8.10;5.57;;;33.20;57.70;;;;;;5053867;28;20036;-76